createdAt,value
2023-01-04T00:00:44.807Z,17.77
2023-01-04T00:03:04.895Z,16.02
2023-01-04T00:05:24.974Z,16.92
2023-01-04T00:07:44.519Z,17.35
2023-01-04T00:10:04.683Z,17.92
2023-01-04T00:12:24.533Z,18.70
2023-01-04T00:14:44.145Z,18.33
2023-01-04T00:17:03.920Z,19.20
2023-01-04T00:19:23.793Z,21.60
2023-01-04T00:21:43.637Z,22.90
2023-01-04T00:24:03.695Z,19.50
2023-01-04T00:26:26.781Z,21.33
2023-01-04T00:28:54.025Z,23.50
2023-01-04T00:31:15.422Z,27.17
2023-01-04T00:33:35.670Z,27.70
2023-01-04T00:35:55.655Z,27.98
2023-01-04T00:38:15.748Z,30.55
2023-01-04T00:40:35.799Z,28.58
2023-01-04T00:42:55.242Z,30.63
2023-01-04T00:45:14.915Z,30.65
2023-01-04T00:47:34.464Z,29.52
2023-01-04T00:49:54.012Z,25.92
2023-01-04T00:52:14.118Z,24.48
2023-01-04T00:54:34.289Z,24.50
2023-01-04T00:56:54.496Z,24.70
2023-01-04T00:59:17.225Z,24.83
2023-01-04T01:01:38.560Z,24.30
2023-01-04T01:04:01.354Z,24.58
2023-01-04T01:06:21.805Z,23.75
2023-01-04T01:08:41.251Z,23.15
2023-01-04T01:11:07.554Z,24.45
2023-01-04T01:13:27.644Z,25.95
2023-01-04T01:15:47.928Z,26.27
2023-01-04T01:18:07.935Z,25.30
2023-01-04T01:20:28.046Z,27.35
2023-01-04T01:22:47.945Z,27.75
2023-01-04T01:25:07.879Z,29.83
2023-01-04T01:27:28.095Z,31.63
2023-01-04T01:29:47.978Z,32.92
2023-01-04T01:32:08.006Z,35.60
2023-01-04T01:34:27.470Z,37.25
2023-01-04T01:36:47.876Z,31.48
2023-01-04T01:39:07.603Z,32.85
2023-01-04T01:41:30.506Z,27.25
2023-01-04T01:44:06.195Z,27.50
2023-01-04T01:46:40.461Z,27.13
2023-01-04T01:49:25.939Z,31.88
2023-01-04T01:51:45.927Z,32.90
2023-01-04T01:54:20.038Z,29.95
2023-01-04T01:56:42.599Z,30.33
2023-01-04T01:59:04.041Z,30.40
2023-01-04T02:01:24.702Z,30.15
2023-01-04T02:03:44.960Z,30.88
2023-01-04T02:06:08.544Z,31.48
2023-01-04T02:08:30.216Z,31.00
2023-01-04T02:10:50.147Z,31.08
2023-01-04T02:13:14.053Z,30.13
2023-01-04T02:15:48.176Z,29.80
2023-01-04T02:18:14.846Z,29.48
2023-01-04T02:20:44.032Z,31.73
2023-01-04T02:23:49.137Z,30.35
2023-01-04T02:26:27.878Z,31.10
2023-01-04T02:28:54.038Z,31.75
2023-01-04T02:31:44.910Z,30.98
2023-01-04T02:34:23.027Z,30.70
2023-01-04T02:37:01.393Z,32.97
2023-01-04T02:39:47.591Z,30.20
2023-01-04T02:42:54.556Z,30.90
2023-01-04T02:45:17.072Z,33.08
2023-01-04T02:47:56.839Z,33.85
2023-01-04T02:50:30.506Z,31.52
2023-01-04T02:52:50.385Z,35.20
2023-01-04T02:55:10.000Z,33.85
2023-01-04T02:57:56.179Z,34.28
2023-01-04T03:00:22.567Z,36.65
2023-01-04T03:03:34.550Z,33.13
2023-01-04T03:06:16.482Z,32.38
2023-01-04T03:08:46.029Z,33.42
2023-01-04T03:11:32.790Z,35.53
2023-01-04T03:13:55.552Z,34.58
2023-01-04T03:16:21.426Z,34.45
2023-01-04T03:18:46.076Z,33.72
2023-01-04T03:21:09.012Z,34.83
2023-01-04T03:23:53.599Z,35.03
2023-01-04T03:27:04.141Z,34.85
2023-01-04T03:30:05.633Z,29.30
2023-01-04T03:33:13.555Z,28.63
2023-01-04T03:35:55.210Z,30.17
2023-01-04T03:39:02.657Z,30.30
2023-01-04T03:41:50.165Z,29.45
2023-01-04T03:44:46.169Z,28.83
2023-01-04T03:47:30.720Z,31.33
2023-01-04T03:49:59.951Z,26.92
2023-01-04T03:52:20.852Z,28.52
2023-01-04T03:54:47.572Z,28.98
2023-01-04T03:57:09.236Z,28.88
2023-01-04T03:59:29.126Z,28.40
2023-01-04T04:01:49.444Z,28.05
2023-01-04T04:04:29.145Z,30.48
2023-01-04T04:07:07.951Z,29.42
2023-01-04T04:09:27.953Z,27.67
2023-01-04T04:11:48.558Z,29.13
2023-01-04T04:14:08.565Z,30.13
2023-01-04T04:16:29.210Z,29.52
2023-01-04T04:18:48.981Z,29.40
2023-01-04T04:21:09.146Z,28.23
2023-01-04T04:23:29.178Z,24.13
2023-01-04T04:25:49.127Z,24.52
2023-01-04T04:28:08.934Z,25.70
2023-01-04T04:30:28.877Z,23.35
2023-01-04T04:32:48.578Z,22.10
2023-01-04T04:35:09.755Z,24.65
2023-01-04T04:37:31.373Z,22.67
2023-01-04T04:39:50.953Z,22.90
2023-01-04T04:42:10.678Z,24.50
2023-01-04T04:44:30.620Z,26.48
2023-01-04T04:46:50.804Z,27.27
2023-01-04T04:49:12.945Z,27.33
2023-01-04T04:51:32.900Z,27.33
2023-01-04T04:53:52.904Z,25.60
2023-01-04T04:56:12.645Z,25.35
2023-01-04T04:58:32.745Z,25.20
2023-01-04T05:00:52.766Z,25.15
2023-01-04T05:03:13.203Z,22.40
2023-01-04T05:05:33.110Z,22.80
2023-01-04T05:07:53.323Z,21.77
2023-01-04T05:10:13.142Z,23.67
2023-01-04T05:12:57.479Z,26.08
2023-01-04T05:15:17.640Z,23.98
2023-01-04T05:17:37.472Z,25.38
2023-01-04T05:19:57.148Z,24.92
2023-01-04T05:22:16.754Z,23.35
2023-01-04T05:24:36.273Z,21.73
2023-01-04T05:26:56.500Z,23.25
2023-01-04T05:29:35.111Z,24.02
2023-01-04T05:31:55.270Z,21.88
2023-01-04T05:34:21.904Z,24.50
2023-01-04T05:36:42.168Z,24.52
2023-01-04T05:39:02.222Z,22.17
2023-01-04T05:41:40.653Z,22.40
2023-01-04T05:44:00.944Z,22.67
2023-01-04T05:46:21.548Z,21.08
2023-01-04T05:48:41.345Z,23.55
2023-01-04T05:51:01.470Z,23.52
2023-01-04T05:53:21.219Z,23.27
2023-01-04T05:55:41.328Z,20.85
2023-01-04T05:58:01.377Z,20.35
2023-01-04T06:00:20.926Z,20.13
2023-01-04T06:02:41.702Z,19.50
2023-01-04T06:05:01.897Z,19.20
2023-01-04T06:07:22.883Z,19.70
2023-01-04T06:09:43.549Z,21.20
2023-01-04T06:12:03.897Z,21.58
2023-01-04T06:14:23.992Z,20.05
2023-01-04T06:16:43.967Z,23.00
2023-01-04T06:19:03.946Z,24.42
2023-01-04T06:21:26.681Z,33.00
2023-01-04T06:26:06.371Z,95.70
2023-01-04T06:28:26.021Z,76.13
2023-01-04T06:30:46.046Z,60.63
2023-01-04T06:33:05.586Z,42.20
2023-01-04T06:35:26.763Z,28.33
2023-01-04T06:37:46.847Z,26.23
2023-01-04T06:40:07.780Z,27.33
2023-01-04T06:42:45.734Z,25.50
2023-01-04T06:45:06.157Z,21.40
2023-01-04T06:47:26.075Z,22.17
2023-01-04T06:49:46.001Z,22.27
2023-01-04T06:52:05.528Z,21.85
2023-01-04T06:54:25.270Z,22.30
2023-01-04T06:56:45.463Z,22.58
2023-01-04T06:59:05.956Z,43.50
2023-01-04T07:01:25.814Z,31.05
2023-01-04T07:03:45.891Z,32.15
2023-01-04T07:06:06.783Z,33.85
2023-01-04T07:08:26.925Z,35.15
2023-01-04T07:10:47.276Z,36.28
2023-01-04T07:13:07.883Z,31.35
2023-01-04T07:15:38.028Z,39.60
2023-01-04T07:18:00.100Z,32.90
2023-01-04T07:20:19.980Z,33.78
2023-01-04T07:22:39.720Z,26.85
2023-01-04T07:24:59.405Z,28.20
2023-01-04T07:27:19.444Z,24.80
2023-01-04T07:29:43.175Z,30.90
2023-01-04T07:32:07.641Z,30.17
2023-01-04T07:34:30.787Z,30.30
2023-01-04T07:36:51.301Z,26.95
2023-01-04T07:39:12.005Z,28.85
2023-01-04T07:41:31.914Z,24.92
2023-01-04T07:43:51.543Z,22.35
2023-01-04T07:46:11.370Z,25.48
2023-01-04T07:48:31.559Z,27.85
2023-01-04T07:50:51.245Z,32.60
2023-01-04T07:53:11.729Z,33.97
2023-01-04T07:55:31.617Z,33.55
2023-01-04T07:57:53.558Z,34.05
2023-01-04T08:00:13.791Z,31.88
2023-01-04T08:02:34.217Z,31.25
2023-01-04T08:04:56.258Z,32.28
2023-01-04T08:07:16.611Z,30.13
2023-01-04T08:09:36.536Z,31.33
2023-01-04T08:11:56.575Z,33.15
2023-01-04T08:14:16.219Z,30.40
2023-01-04T08:16:38.397Z,30.38
2023-01-04T08:19:01.480Z,33.17
2023-01-04T08:21:22.538Z,35.40
2023-01-04T08:23:42.373Z,39.05
2023-01-04T08:26:04.345Z,34.28
2023-01-04T08:28:24.926Z,31.15
2023-01-04T08:30:44.812Z,30.95
2023-01-04T08:33:13.596Z,31.08
2023-01-04T08:35:33.691Z,27.17
2023-01-04T08:37:53.766Z,28.75
2023-01-04T08:40:13.723Z,28.88
2023-01-04T08:42:33.382Z,29.77
2023-01-04T08:44:58.944Z,28.17
2023-01-04T08:47:19.494Z,27.38
2023-01-04T08:49:38.975Z,28.25
2023-01-04T08:51:58.599Z,29.73
2023-01-04T08:54:19.089Z,31.83
2023-01-04T08:56:39.269Z,30.92
2023-01-04T08:58:59.546Z,32.97
2023-01-04T09:01:19.417Z,29.83
2023-01-04T09:03:39.384Z,27.05
2023-01-04T09:06:08.137Z,34.60
2023-01-04T09:08:29.653Z,32.42
2023-01-04T09:10:49.437Z,31.83
2023-01-04T09:13:09.060Z,32.55
2023-01-04T09:15:29.233Z,44.88
2023-01-04T09:18:20.442Z,37.80
2023-01-04T09:20:29.855Z,34.25
2023-01-04T09:22:50.140Z,34.25
2023-01-04T09:25:10.186Z,31.85
2023-01-04T09:27:32.225Z,29.83
2023-01-04T09:29:52.061Z,31.27
2023-01-04T09:32:16.573Z,27.85
2023-01-04T09:34:36.695Z,25.08
2023-01-04T09:36:56.211Z,28.70
2023-01-04T09:39:22.520Z,27.05
2023-01-04T09:41:52.805Z,27.27
2023-01-04T09:45:23.139Z,26.17
2023-01-04T09:48:03.692Z,32.53
2023-01-04T09:50:28.666Z,23.43
2023-01-04T09:53:16.819Z,26.35
2023-01-04T09:55:49.861Z,25.88
2023-01-04T09:58:25.677Z,20.67
2023-01-04T10:01:00.642Z,25.88
2023-01-04T10:03:29.017Z,36.08
2023-01-04T10:05:49.427Z,38.05
2023-01-04T10:08:19.237Z,45.30
2023-01-04T10:11:17.393Z,40.97
2023-01-04T10:13:57.471Z,36.15
2023-01-04T10:17:01.603Z,31.92
2023-01-04T10:20:59.632Z,31.73
2023-01-04T10:22:19.486Z,22.73
2023-01-04T10:25:03.264Z,25.25
2023-01-04T10:27:28.944Z,24.55
2023-01-04T10:30:09.042Z,25.20
2023-01-04T10:32:44.111Z,24.45
2023-01-04T10:35:17.651Z,25.38
2023-01-04T10:37:38.236Z,22.92
2023-01-04T10:39:58.526Z,24.25
2023-01-04T10:42:20.205Z,22.83
2023-01-04T10:45:03.290Z,22.55
2023-01-04T10:47:43.124Z,22.23
2023-01-04T10:50:26.399Z,21.05
2023-01-04T10:53:17.348Z,21.70
2023-01-04T10:56:24.302Z,23.23
2023-01-04T10:58:51.078Z,22.75
2023-01-04T11:01:20.291Z,21.98
2023-01-04T11:03:42.737Z,27.92
2023-01-04T11:06:24.451Z,22.83
2023-01-04T11:08:50.094Z,25.15
2023-01-04T11:11:15.648Z,23.23
2023-01-04T11:13:35.415Z,22.90
2023-01-04T11:15:55.222Z,24.85
2023-01-04T11:18:16.543Z,24.10
2023-01-04T11:20:38.502Z,23.42
2023-01-04T11:23:10.762Z,29.02
2023-01-04T11:25:37.399Z,22.77
2023-01-04T11:28:15.584Z,14.65
2023-01-04T11:30:47.159Z,16.45
2023-01-04T11:33:17.388Z,12.60
2023-01-04T11:35:42.869Z,13.45
2023-01-04T11:38:20.792Z,10.75
2023-01-04T11:40:41.932Z,10.13
2023-01-04T11:43:17.883Z,11.60
2023-01-04T11:45:37.767Z,10.57
2023-01-04T11:48:00.192Z,11.35
2023-01-04T11:50:35.482Z,10.50
2023-01-04T11:52:55.496Z,10.75
2023-01-04T11:55:30.134Z,12.57
2023-01-04T11:58:07.740Z,10.07
2023-01-04T12:00:27.817Z,9.75
2023-01-04T12:03:03.144Z,10.98
2023-01-04T12:05:29.576Z,12.70
2023-01-04T12:07:50.228Z,10.75
2023-01-04T12:10:26.263Z,12.98
2023-01-04T12:12:46.366Z,11.13
2023-01-04T12:15:18.644Z,10.85
2023-01-04T12:17:51.125Z,11.73
2023-01-04T12:20:19.660Z,9.93
2023-01-04T12:22:40.657Z,10.13
2023-01-04T12:25:03.464Z,11.88
2023-01-04T12:27:23.909Z,11.77
2023-01-04T12:29:57.380Z,13.43
2023-01-04T12:32:17.504Z,12.15
2023-01-04T12:34:37.074Z,10.93
2023-01-04T12:37:04.780Z,11.10
2023-01-04T12:39:28.659Z,14.00
2023-01-04T12:42:00.215Z,12.23
2023-01-04T12:44:39.212Z,12.57
2023-01-04T12:47:17.461Z,13.80
2023-01-04T12:49:56.209Z,14.35
2023-01-04T12:52:42.942Z,12.35
2023-01-04T12:55:02.461Z,13.48
2023-01-04T12:57:37.291Z,14.40
2023-01-04T13:00:05.878Z,13.60
2023-01-04T13:02:27.511Z,14.15
2023-01-04T13:04:48.427Z,14.98
2023-01-04T13:07:18.825Z,13.40
2023-01-04T13:09:48.208Z,12.75
2023-01-04T13:12:20.619Z,13.70
2023-01-04T13:14:47.506Z,16.52
2023-01-04T13:17:23.100Z,14.98
2023-01-04T13:19:44.304Z,15.18
2023-01-04T13:22:15.678Z,15.68
2023-01-04T13:24:36.111Z,15.07
2023-01-04T13:26:57.517Z,18.45
2023-01-04T13:29:21.704Z,16.70
2023-01-04T13:31:47.114Z,15.07
2023-01-04T13:34:33.317Z,15.05
2023-01-04T13:37:09.842Z,18.52
2023-01-04T13:39:30.020Z,15.55
2023-01-04T13:41:52.263Z,17.27
2023-01-04T13:45:00.067Z,15.05
2023-01-04T13:47:10.114Z,15.55
2023-01-04T13:49:29.990Z,16.35
2023-01-04T13:51:49.569Z,16.08
2023-01-04T13:54:21.814Z,15.88
2023-01-04T13:56:41.750Z,17.17
2023-01-04T13:59:02.945Z,16.10
2023-01-04T14:01:34.060Z,14.30
2023-01-04T14:04:00.168Z,14.70
2023-01-04T14:06:33.374Z,15.68
2023-01-04T14:09:01.180Z,14.75
2023-01-04T14:11:43.651Z,15.23
2023-01-04T14:14:05.039Z,13.05
2023-01-04T14:16:25.490Z,13.43
2023-01-04T14:18:45.322Z,13.05
2023-01-04T14:21:17.634Z,11.48
2023-01-04T14:23:38.143Z,13.53
2023-01-04T14:25:58.264Z,12.93
2023-01-04T14:28:23.871Z,12.75
2023-01-04T14:30:45.272Z,12.63
2023-01-04T14:33:17.321Z,13.23
2023-01-04T14:35:39.938Z,12.65
2023-01-04T14:38:18.797Z,14.40
2023-01-04T14:40:40.206Z,14.90
2023-01-04T14:43:00.113Z,16.17
2023-01-04T14:45:19.969Z,17.30
2023-01-04T14:47:41.386Z,18.90
2023-01-04T14:50:01.111Z,21.38
2023-01-04T14:52:23.170Z,20.33
2023-01-04T14:54:43.011Z,21.33
2023-01-04T14:57:04.076Z,21.17
2023-01-04T14:59:25.876Z,18.38
2023-01-04T15:01:46.125Z,22.52
2023-01-04T15:04:06.734Z,21.73
2023-01-04T15:06:26.858Z,23.83
2023-01-04T15:08:48.044Z,23.52
2023-01-04T15:11:09.388Z,26.23
2023-01-04T15:13:36.749Z,24.42
2023-01-04T15:15:59.360Z,25.10
2023-01-04T15:18:19.414Z,23.95
2023-01-04T15:20:40.772Z,24.60
2023-01-04T15:23:00.539Z,25.08
2023-01-04T15:25:20.207Z,27.15
2023-01-04T15:27:42.833Z,27.17
2023-01-04T15:30:04.013Z,29.27
2023-01-04T15:32:24.193Z,26.73
2023-01-04T15:34:47.021Z,28.45
2023-01-04T15:37:07.597Z,29.20
2023-01-04T15:39:27.430Z,29.58
2023-01-04T15:42:05.958Z,32.92
2023-01-04T15:44:26.027Z,30.35
2023-01-04T15:46:45.905Z,31.58
2023-01-04T15:49:07.359Z,32.72
2023-01-04T15:51:29.739Z,34.75
2023-01-04T15:53:51.361Z,35.88
2023-01-04T15:56:12.503Z,35.53
2023-01-04T15:58:32.249Z,34.95
2023-01-04T16:00:58.456Z,33.70
2023-01-04T16:03:22.429Z,36.92
2023-01-04T16:05:42.456Z,35.55
2023-01-04T16:08:02.543Z,36.58
2023-01-04T16:10:22.715Z,48.78
2023-01-04T16:12:44.111Z,40.70
2023-01-04T16:15:04.086Z,57.38
2023-01-04T16:17:24.723Z,54.85
2023-01-04T16:19:44.766Z,52.22
2023-01-04T16:22:04.591Z,45.17
2023-01-04T16:25:08.285Z,53.95
2023-01-04T16:27:03.982Z,45.10
2023-01-04T16:29:24.337Z,48.10
2023-01-04T16:31:44.734Z,42.92
2023-01-04T16:34:04.864Z,49.85
2023-01-04T16:36:24.595Z,56.20
2023-01-04T16:38:45.609Z,53.22
2023-01-04T16:41:07.343Z,52.30
2023-01-04T16:43:28.427Z,51.53
2023-01-04T16:45:48.295Z,43.88
2023-01-04T16:48:11.205Z,50.75
2023-01-04T16:50:33.383Z,49.47
2023-01-04T16:52:53.376Z,53.10
2023-01-04T16:55:16.201Z,59.35
2023-01-04T16:57:38.502Z,57.47
2023-01-04T16:59:58.413Z,62.15
2023-01-04T17:02:18.311Z,59.72
2023-01-04T17:04:38.219Z,62.45
2023-01-04T17:06:57.910Z,62.80
2023-01-04T17:09:19.363Z,57.05
2023-01-04T17:14:19.507Z,61.72
2023-01-04T17:16:40.199Z,64.50
2023-01-04T17:19:00.517Z,66.10
2023-01-04T17:21:33.932Z,61.63
2023-01-04T17:23:56.575Z,58.97
2023-01-04T17:26:19.032Z,61.78
2023-01-04T17:28:40.022Z,56.88
2023-01-04T17:31:04.379Z,59.50
2023-01-04T17:33:24.484Z,86.53
2023-01-04T17:35:44.502Z,71.13
2023-01-04T17:38:05.876Z,57.90
2023-01-04T17:40:25.976Z,57.13
2023-01-04T17:42:46.183Z,60.58
2023-01-04T17:45:06.133Z,55.90
2023-01-04T17:47:25.749Z,56.72
2023-01-04T17:49:46.033Z,50.60
2023-01-04T17:52:08.638Z,47.72
2023-01-04T17:54:28.763Z,55.58
2023-01-04T17:56:48.533Z,42.25
2023-01-04T17:59:09.493Z,67.95
2023-01-04T18:01:30.108Z,62.80
2023-01-04T18:03:52.677Z,52.70
2023-01-04T18:06:25.395Z,61.28
2023-01-04T18:08:46.402Z,46.58
2023-01-04T18:11:08.183Z,46.50
2023-01-04T18:13:29.951Z,43.47
2023-01-04T18:16:18.550Z,40.92
2023-01-04T18:18:29.645Z,43.25
2023-01-04T18:20:49.623Z,43.10
2023-01-04T18:23:15.021Z,46.00
2023-01-04T18:25:44.052Z,40.55
2023-01-04T18:28:04.126Z,48.03
2023-01-04T18:30:24.375Z,49.20
2023-01-04T18:32:43.981Z,49.50
2023-01-04T18:35:04.947Z,44.10
2023-01-04T18:37:24.873Z,39.78
2023-01-04T18:39:45.551Z,42.42
2023-01-04T18:42:05.278Z,44.42
2023-01-04T18:44:33.874Z,38.58
2023-01-04T18:46:54.567Z,41.63
2023-01-04T18:49:14.235Z,42.35
2023-01-04T18:51:34.360Z,40.95
2023-01-04T18:53:54.401Z,36.33
2023-01-04T18:56:16.339Z,40.35
2023-01-04T18:58:36.643Z,39.58
2023-01-04T19:01:26.875Z,37.78
2023-01-04T19:03:48.184Z,34.58
2023-01-04T19:06:10.566Z,39.45
2023-01-04T19:08:30.593Z,45.92
2023-01-04T19:10:50.632Z,44.38
2023-01-04T19:13:10.733Z,55.55
2023-01-04T19:15:30.934Z,50.20
2023-01-04T19:17:50.759Z,40.65
2023-01-04T19:20:10.929Z,36.08
2023-01-04T19:22:30.756Z,36.67
2023-01-04T19:24:50.844Z,33.33
2023-01-04T19:27:11.967Z,35.38
2023-01-04T19:29:33.310Z,35.63
2023-01-04T19:31:53.230Z,30.02
2023-01-04T19:34:13.802Z,35.20
2023-01-04T19:36:33.803Z,30.33
2023-01-04T19:38:57.080Z,40.97
2023-01-04T19:41:20.381Z,39.53
2023-01-04T19:45:59.914Z,36.63
2023-01-04T19:48:20.012Z,38.38
2023-01-04T19:50:40.242Z,36.55
2023-01-04T19:53:03.307Z,37.75
2023-01-04T19:55:23.805Z,41.28
2023-01-04T19:57:43.376Z,36.33
2023-01-04T20:00:07.360Z,37.78
2023-01-04T20:02:27.343Z,33.92
2023-01-04T20:04:47.117Z,33.88
2023-01-04T20:07:06.713Z,39.72
2023-01-04T20:09:27.188Z,37.25
2023-01-04T20:11:47.048Z,40.80
2023-01-04T20:14:06.776Z,38.70
2023-01-04T20:16:27.353Z,35.78
2023-01-04T20:18:47.355Z,36.00
2023-01-04T20:21:13.051Z,33.75
2023-01-04T20:23:34.018Z,37.97
2023-01-04T20:25:54.510Z,34.10
2023-01-04T20:28:16.608Z,33.50
2023-01-04T20:30:37.199Z,25.40
2023-01-04T20:32:56.959Z,25.52
2023-01-04T20:35:16.651Z,24.15
2023-01-04T20:37:36.411Z,21.00
2023-01-04T20:39:56.154Z,21.20
2023-01-04T20:42:34.417Z,26.45
2023-01-04T20:44:54.438Z,33.20
2023-01-04T20:47:14.006Z,24.45
2023-01-04T20:49:33.900Z,23.92
2023-01-04T20:51:53.586Z,25.08
2023-01-04T20:54:13.521Z,26.48
2023-01-04T20:56:36.898Z,35.45
2023-01-04T20:58:57.130Z,32.63
2023-01-04T21:01:18.751Z,33.30
2023-01-04T21:03:38.880Z,34.85
2023-01-04T21:06:05.599Z,37.00
2023-01-04T21:08:25.563Z,39.13
2023-01-04T21:10:45.710Z,42.78
2023-01-04T21:13:05.324Z,32.58
2023-01-04T21:15:25.129Z,44.90
2023-01-04T21:17:47.113Z,36.25
2023-01-04T21:20:07.484Z,29.85
2023-01-04T21:22:27.099Z,30.33
2023-01-04T21:24:46.950Z,28.60
2023-01-04T21:27:07.064Z,24.50
2023-01-04T21:29:27.600Z,26.67
2023-01-04T21:31:47.578Z,22.55
2023-01-04T21:34:13.562Z,22.73
2023-01-04T21:36:34.723Z,23.13
2023-01-04T21:38:57.036Z,28.42
2023-01-04T21:41:17.758Z,33.20
2023-01-04T21:43:38.168Z,33.33
2023-01-04T21:46:04.654Z,34.08
2023-01-04T21:48:24.509Z,33.47
2023-01-04T21:50:44.036Z,24.65
2023-01-04T21:53:03.950Z,26.50
2023-01-04T21:55:28.158Z,24.10
2023-01-04T21:57:50.737Z,28.48
2023-01-04T22:00:11.403Z,32.88
2023-01-04T22:02:32.482Z,25.13
2023-01-04T22:04:52.677Z,23.75
2023-01-04T22:07:13.776Z,30.25
2023-01-04T22:09:34.042Z,22.92
2023-01-04T22:11:53.849Z,22.63
2023-01-04T22:14:13.567Z,28.42
2023-01-04T22:16:33.627Z,27.33
2023-01-04T22:18:53.671Z,27.17
2023-01-04T22:21:15.262Z,24.00
2023-01-04T22:23:34.914Z,25.85
2023-01-04T22:25:58.886Z,24.35
2023-01-04T22:28:18.652Z,24.05
2023-01-04T22:30:41.031Z,21.80
2023-01-04T22:33:01.023Z,24.73
2023-01-04T22:35:22.011Z,28.35
2023-01-04T22:37:41.664Z,25.63
2023-01-04T22:40:01.385Z,34.17
2023-01-04T22:42:20.941Z,28.42
2023-01-04T22:44:41.016Z,23.63
2023-01-04T22:47:00.908Z,33.90
2023-01-04T22:49:20.872Z,30.15
2023-01-04T22:51:40.717Z,30.75
2023-01-04T22:54:01.785Z,32.00
2023-01-04T22:56:23.162Z,40.50
2023-01-04T22:58:46.840Z,24.00
2023-01-04T23:01:12.035Z,31.90
2023-01-04T23:03:33.897Z,38.25
2023-01-04T23:05:53.794Z,17.90
2023-01-04T23:08:13.512Z,21.65
2023-01-04T23:10:36.327Z,28.55
2023-01-04T23:12:55.967Z,29.90
2023-01-04T23:15:15.700Z,30.33
2023-01-04T23:17:35.466Z,21.17
2023-01-04T23:19:55.137Z,41.58
2023-01-04T23:22:14.683Z,32.40
2023-01-04T23:24:34.997Z,29.08
2023-01-04T23:26:54.733Z,18.42
2023-01-04T23:29:14.322Z,26.52
2023-01-04T23:31:34.499Z,27.77
2023-01-04T23:33:57.507Z,34.75
2023-01-04T23:36:20.734Z,23.30
2023-01-04T23:41:01.122Z,16.90
2023-01-04T23:43:20.989Z,47.67
2023-01-04T23:45:40.569Z,37.95
2023-01-04T23:48:00.173Z,31.30
2023-01-04T23:50:21.563Z,23.85
2023-01-04T23:52:41.573Z,29.75
2023-01-04T23:55:01.703Z,26.88
2023-01-04T23:57:21.837Z,27.63
2023-01-04T23:59:41.787Z,26.25
